Time;durP1;ratioP1;P1;durP2;ratioP2;P2;SDS_P1;SDS_P2;PMS_P1;PMS_P2;Temp;Humidity;BMP_temperature;BMP_pressure;BME280_temperature;BME280_humidity;BME280_pressure;Samples;Min_cycle;Max_cycle;Signal;HPM_P1;HPM_P2
2021/12/10 00:04:41;;;;;;;44.20;23.00;;;;;;;-0.90;81.09;98698.62;230344;1193;140342;-67
2021/12/10 00:09:49;;;;;;;37.30;19.40;;;;;;;-0.86;80.99;98700.80;228511;1193;140001;-68
2021/12/10 00:14:55;;;;;;;45.60;22.50;;;;;;;-0.84;80.62;98689.86;228604;1193;141317;-68
2021/12/10 00:20:00;;;;;;;45.50;19.20;;;;;;;-0.85;80.54;98684.05;228559;1193;140306;-70
2021/12/10 00:25:04;;;;;;;39.50;24.80;;;;;;;-0.92;80.80;98678.77;229354;1193;138856;-67
2021/12/10 00:30:19;;;;;;;35.10;20.60;;;;;;;-0.95;81.17;98669.69;229091;1193;139778;-68
2021/12/10 00:35:24;;;;;;;46.90;21.00;;;;;;;-0.94;81.25;98656.95;228579;1193;140354;-72
2021/12/10 00:40:28;;;;;;;48.80;24.90;;;;;;;-0.86;81.02;98637.80;228653;1193;141571;-69
2021/12/10 00:45:31;;;;;;;51.60;27.20;;;;;;;-0.79;81.34;98631.26;228892;1193;140099;-69
2021/12/10 00:50:40;;;;;;;56.40;26.50;;;;;;;-0.79;81.40;98627.52;228626;1193;141076;-67
2021/12/10 00:55:44;;;;;;;45.20;22.00;;;;;;;-0.81;81.53;98641.20;229360;1193;141095;-66
2021/12/10 01:00:52;;;;;;;52.20;24.20;;;;;;;-0.80;81.34;98639.48;228544;1193;139763;-67
2021/12/10 01:06:01;;;;;;;43.70;22.50;;;;;;;-0.78;81.31;98636.87;228250;1193;139511;-67
2021/12/10 01:11:24;;;;;;;;;;;;;;;;;;;;;
2021/12/10 01:27:08;;;;;;;39.60;20.40;;;;;;;-0.87;81.31;98605.67;228907;1193;139649;-67
2021/12/10 01:32:16;;;;;;;38.30;19.20;;;;;;;-0.83;81.41;98593.87;228543;1193;139635;-67
2021/12/10 01:37:20;;;;;;;37.40;20.00;;;;;;;-0.85;81.38;98595.38;229390;1193;140687;-67
2021/12/10 01:47:34;;;;;;;27.30;14.20;;;;;;;-0.89;81.45;98582.55;229401;1193;140332;-67
2021/12/10 01:52:37;;;;;;;37.00;20.30;;;;;;;-0.88;81.39;98570.73;230203;1193;140407;-68
2021/12/10 01:57:40;;;;;;;39.10;17.50;;;;;;;-0.80;81.45;98576.91;230172;1193;140668;-68
2021/12/10 02:02:45;;;;;;;34.20;17.80;;;;;;;-0.77;81.30;98560.19;230437;1193;140033;-69
2021/12/10 02:07:49;;;;;;;40.10;22.60;;;;;;;-0.78;81.35;98544.69;229942;1193;139835;-68
2021/12/10 02:12:51;;;;;;;37.20;19.90;;;;;;;-0.78;81.40;98545.41;227909;1193;139495;-68
2021/12/10 02:17:58;;;;;;;36.70;16.20;;;;;;;-0.80;81.39;98541.48;229224;1193;141585;-67
2021/12/10 02:23:06;;;;;;;35.40;19.50;;;;;;;-0.75;81.49;98532.19;228836;1193;140369;-68
2021/12/10 02:28:12;;;;;;;37.70;18.50;;;;;;;-0.70;81.63;98522.48;228200;1193;139548;-75
2021/12/10 02:33:16;;;;;;;34.30;17.20;;;;;;;-0.67;81.70;98531.04;227673;1193;140116;-68
2021/12/10 02:38:22;;;;;;;34.70;17.30;;;;;;;-0.71;81.61;98527.30;228928;1193;141634;-71
2021/12/10 02:43:26;;;;;;;42.20;17.70;;;;;;;-0.71;82.04;98508.44;228348;1193;140427;-67
2021/12/10 02:48:28;;;;;;;31.80;15.80;;;;;;;-0.65;81.55;98510.56;227980;1193;139710;-69
2021/12/10 02:53:36;;;;;;;34.60;20.40;;;;;;;-0.67;81.46;98513.97;229007;1193;140229;-69
2021/12/10 02:58:46;;;;;;;31.90;18.40;;;;;;;-0.71;81.33;98508.83;227725;1193;139929;-67
2021/12/10 03:03:49;;;;;;;28.30;13.80;;;;;;;-0.76;81.61;98511.17;228768;1193;140380;-69
2021/12/10 03:09:14;;;;;;;31.00;15.50;;;;;;;-0.79;81.71;98510.34;228079;1193;139787;-71
2021/12/10 03:14:20;;;;;;;38.20;18.00;;;;;;;-0.75;81.55;98508.76;228814;1193;140423;-70
2021/12/10 03:19:27;;;;;;;;;;;;;;;-0.72;81.89;98513.73;228985;1193;141597;-69
2021/12/10 03:24:32;;;;;;;27.50;17.50;;;;;;;-0.75;81.87;98511.17;228485;1193;125497;-72
2021/12/10 03:29:38;;;;;;;30.80;16.00;;;;;;;-0.74;81.81;98515.13;228892;1193;139743;-70
2021/12/10 03:34:41;;;;;;;37.10;17.40;;;;;;;-0.75;81.96;98522.69;229038;1193;229749;-70
2021/12/10 03:39:46;;;;;;;38.20;17.30;;;;;;;-0.68;82.03;98517.87;229527;1193;139776;-71
2021/12/10 03:44:49;;;;;;;31.10;16.50;;;;;;;-0.62;82.17;98511.15;229752;1193;139775;-72
2021/12/10 03:49:52;;;;;;;38.30;18.10;;;;;;;-0.59;82.12;98507.31;229743;1193;139787;-68
2021/12/10 03:54:55;;;;;;;32.70;16.60;;;;;;;-0.57;82.37;98508.81;230261;1193;139859;-71
2021/12/10 03:59:58;;;;;;;34.60;16.10;;;;;;;-0.54;82.28;98506.41;230511;1193;139357;-71
2021/12/10 04:05:01;;;;;;;38.50;16.90;;;;;;;-0.49;81.99;98501.81;230151;1193;139978;-72
2021/12/10 04:10:07;;;;;;;40.60;18.40;;;;;;;-0.46;81.87;98497.20;228866;1193;140042;-72
2021/12/10 04:15:18;;;;;;;32.30;17.10;;;;;;;-0.45;81.87;98485.80;228926;1192;139534;-70
2021/12/10 04:20:27;;;;;;;40.90;18.90;;;;;;;-0.48;81.92;98481.89;229041;1193;139886;-70
2021/12/10 04:25:31;;;;;;;39.60;17.70;;;;;;;-0.47;82.27;98481.13;228335;1193;139972;-70
2021/12/10 04:30:39;;;;;;;45.80;22.10;;;;;;;-0.42;82.10;98467.94;228362;1193;139589;-70
2021/12/10 04:35:45;;;;;;;37.70;21.20;;;;;;;-0.37;82.23;98485.21;228435;1193;141511;-71
2021/12/10 04:40:50;;;;;;;39.40;19.30;;;;;;;-0.35;82.33;98478.09;228892;1193;139853;-71
2021/12/10 04:45:56;;;;;;;36.40;18.20;;;;;;;-0.33;82.28;98470.84;228453;1193;140532;-71
2021/12/10 04:51:00;;;;;;;45.00;22.80;;;;;;;-0.29;81.99;98474.21;228441;1193;140680;-71
2021/12/10 04:56:04;;;;;;;41.60;20.20;;;;;;;-0.27;81.99;98462.95;228203;1193;140477;-71
2021/12/10 05:01:06;;;;;;;40.80;18.60;;;;;;;-0.31;82.18;98462.42;228706;1193;139679;-69
2021/12/10 05:06:10;;;;;;;31.80;18.70;;;;;;;-0.39;82.07;98451.80;227928;1193;139828;-71
2021/12/10 05:11:14;;;;;;;42.50;19.50;;;;;;;-0.47;81.88;98452.85;229185;1193;140947;-71
2021/12/10 05:16:25;;;;;;;36.50;18.10;;;;;;;-0.46;82.21;98450.28;228347;1193;141362;-71
2021/12/10 05:21:31;;;;;;;44.40;24.20;;;;;;;-0.44;82.06;98445.58;227842;1193;141284;-71
2021/12/10 05:26:36;;;;;;;35.60;21.10;;;;;;;-0.49;82.15;98444.06;228784;1193;140908;-71
2021/12/10 05:31:43;;;;;;;31.50;17.90;;;;;;;-0.53;82.15;98446.66;228226;1193;140015;-71
2021/12/10 05:36:50;;;;;;;33.50;18.60;;;;;;;-0.55;82.08;98453.61;228020;1193;139955;-71
2021/12/10 05:41:54;;;;;;;47.90;21.30;;;;;;;-0.54;82.40;98459.86;228557;1193;141001;-70
2021/12/10 05:46:59;;;;;;;38.20;20.00;;;;;;;-0.50;82.47;98461.25;227855;1193;142015;-71
2021/12/10 05:52:04;;;;;;;38.80;22.20;;;;;;;-0.50;82.28;98441.00;230284;1193;139815;-74
2021/12/10 05:57:16;;;;;;;34.50;19.40;;;;;;;-0.50;82.43;98452.03;229987;1193;139543;-72
2021/12/10 06:02:19;;;;;;;44.20;22.70;;;;;;;-0.49;82.29;98459.77;230096;1193;139987;-72
2021/12/10 06:07:22;;;;;;;47.20;23.60;;;;;;;-0.39;82.70;98453.05;228865;1193;141509;-72
2021/12/10 06:12:26;;;;;;;45.60;22.90;;;;;;;-0.29;82.31;98442.95;229564;1193;140336;-71
2021/12/10 06:17:33;;;;;;;41.70;21.30;;;;;;;-0.26;82.56;98437.41;229656;1193;139872;-72
2021/12/10 06:22:59;;;;;;;44.80;24.20;;;;;;;-0.29;82.09;98440.47;229981;1193;140651;-71
2021/12/10 06:28:07;;;;;;;46.70;20.10;;;;;;;-0.26;82.43;98444.65;227475;1193;139206;-69
2021/12/10 06:33:15;;;;;;;41.60;20.80;;;;;;;-0.20;82.23;98449.71;229501;1193;141546;-71
2021/12/10 06:38:21;;;;;;;54.50;26.80;;;;;;;-0.16;82.32;98454.36;228557;1193;140178;-71
2021/12/10 06:43:28;;;;;;;43.70;23.90;;;;;;;-0.16;82.43;98441.48;229127;1193;139206;-71
2021/12/10 06:48:38;;;;;;;40.10;20.50;;;;;;;-0.17;82.18;98442.92;228399;1193;139887;-70
2021/12/10 06:54:04;;;;;;;45.00;24.10;;;;;;;-0.11;82.13;98448.63;227567;1193;139511;-70
2021/12/10 06:59:09;;;;;;;44.10;21.90;;;;;;;-0.08;82.19;98451.10;228990;1193;139999;-71
2021/12/10 07:04:15;;;;;;;45.50;23.00;;;;;;;-0.10;82.18;98452.83;228498;1193;139890;-71
2021/12/10 07:09:25;;;;;;;46.80;21.00;;;;;;;-0.10;82.26;98455.80;228903;1193;139570;-70
2021/12/10 07:14:28;;;;;;;41.30;22.20;;;;;;;-0.13;81.76;98454.71;228416;1193;140129;-70
2021/12/10 07:19:31;;;;;;;44.10;26.70;;;;;;;-0.10;81.60;98458.91;228559;1193;140219;-71
2021/12/10 07:24:34;;;;;;;44.70;24.80;;;;;;;-0.07;81.92;98462.27;229148;1187;139910;-69
2021/12/10 07:29:38;;;;;;;54.00;23.70;;;;;;;-0.10;81.79;98469.91;229240;1193;139969;-68
2021/12/10 07:34:42;;;;;;;57.20;28.80;;;;;;;-0.07;81.47;98470.60;229278;1193;150425;-70
2021/12/10 07:39:44;;;;;;;49.30;23.80;;;;;;;-0.04;82.01;98461.98;228679;1193;138882;-70
2021/12/10 07:44:49;;;;;;;53.10;27.50;;;;;;;0.05;81.30;98462.11;229833;1193;140057;-73
2021/12/10 07:49:53;;;;;;;47.70;26.60;;;;;;;0.06;81.29;98471.52;228207;1193;141355;-69
2021/12/10 07:54:56;;;;;;;50.40;26.50;;;;;;;0.09;81.04;98467.84;229420;1193;139524;-71
2021/12/10 08:00:00;;;;;;;53.30;26.10;;;;;;;0.13;81.16;98471.09;229806;1193;139088;-70
2021/12/10 08:05:05;;;;;;;53.30;26.10;;;;;;;0.23;81.34;98470.55;230369;1193;141725;-70
2021/12/10 08:10:10;;;;;;;59.40;30.00;;;;;;;0.35;81.00;98467.39;230502;1193;139766;-73
2021/12/10 08:15:14;;;;;;;64.30;31.70;;;;;;;0.41;80.91;98466.92;229622;1193;140356;-71
2021/12/10 08:20:20;;;;;;;58.80;31.60;;;;;;;0.47;80.68;98473.32;228637;1193;141075;-71
2021/12/10 08:25:25;;;;;;;49.50;26.50;;;;;;;0.53;80.86;98479.30;229186;1193;140876;-70
2021/12/10 08:30:30;;;;;;;54.30;27.40;;;;;;;0.58;80.19;98481.68;227861;1193;140649;-70
2021/12/10 08:35:32;;;;;;;72.50;31.20;;;;;;;0.58;80.10;98468.52;228078;1195;141289;-70
2021/12/10 08:40:43;;;;;;;55.50;30.50;;;;;;;0.62;80.06;98460.04;228564;1193;139461;-70
2021/12/10 08:45:47;;;;;;;66.60;29.90;;;;;;;0.66;80.17;98457.85;227914;1193;140716;-71
2021/12/10 08:50:52;;;;;;;66.00;33.20;;;;;;;0.76;80.33;98458.26;228642;1193;140612;-70
2021/12/10 08:55:57;;;;;;;69.60;35.50;;;;;;;0.90;79.87;98464.46;227956;1193;139790;-68
2021/12/10 09:01:06;;;;;;;75.00;34.60;;;;;;;1.01;79.75;98466.10;228011;1193;139696;-69
2021/12/10 09:06:20;;;;;;;76.00;37.00;;;;;;;1.06;79.98;98467.77;228780;1193;142302;-69
2021/12/10 09:11:25;;;;;;;55.10;29.50;;;;;;;1.02;79.35;98477.33;228269;1193;139903;-68
2021/12/10 09:16:49;;;;;;;71.60;33.90;;;;;;;1.06;79.20;98474.98;228948;1193;141055;-69
2021/12/10 09:21:56;;;;;;;75.60;40.40;;;;;;;1.17;79.44;98472.19;228115;1193;141539;-68
2021/12/10 09:27:00;;;;;;;62.20;33.60;;;;;;;1.18;79.16;98471.94;228983;1193;138877;-69
2021/12/10 09:32:09;;;;;;;71.80;36.50;;;;;;;1.21;79.21;98476.89;228918;1193;139372;-68
2021/12/10 09:37:14;;;;;;;66.10;34.30;;;;;;;1.20;79.07;98487.52;228469;1193;140702;-69
2021/12/10 09:42:22;;;;;;;74.20;40.60;;;;;;;1.22;78.92;98493.45;228678;1193;154690;-70
2021/12/10 09:47:26;;;;;;;51.50;30.70;;;;;;;1.14;79.17;98495.77;229654;1193;139726;-69
2021/12/10 09:52:30;;;;;;;71.90;36.60;;;;;;;1.15;79.35;98491.01;229376;1193;140304;-69
2021/12/10 09:57:34;;;;;;;56.40;29.70;;;;;;;1.29;79.15;98491.89;229444;1193;140081;-70
2021/12/10 10:02:54;;;;;;;75.40;37.50;;;;;;;1.42;78.99;98491.27;230558;1193;139085;-71
2021/12/10 10:08:01;;;;;;;77.20;37.10;;;;;;;1.42;78.66;98479.52;230319;1193;140008;-69
2021/12/10 10:13:07;;;;;;;70.80;37.60;;;;;;;1.44;78.58;98478.05;230413;1193;139855;-70
2021/12/10 10:18:11;;;;;;;83.30;39.30;;;;;;;1.53;78.82;98470.41;230491;1193;139818;-70
2021/12/10 10:23:16;;;;;;;79.70;39.50;;;;;;;1.60;78.73;98456.85;228554;1193;140543;-68
2021/12/10 10:28:20;;;;;;;77.60;39.40;;;;;;;1.61;78.73;98450.09;229587;1193;140210;-69
2021/12/10 10:33:25;;;;;;;82.10;40.00;;;;;;;1.59;78.79;98458.59;229623;1193;140558;-69
2021/12/10 10:38:29;;;;;;;72.70;37.50;;;;;;;1.59;79.06;98454.39;228054;1193;140314;-68
2021/12/10 10:43:33;;;;;;;82.10;40.90;;;;;;;1.61;78.84;98453.29;229348;1193;142460;-69
2021/12/10 10:48:48;;;;;;;72.40;35.30;;;;;;;1.61;78.51;98449.61;228742;1193;140034;-67
2021/12/10 10:53:58;;;;;;;57.00;29.10;;;;;;;1.63;78.59;98446.65;228403;1193;139362;-67
2021/12/10 10:59:29;;;;;;;41.90;23.90;;;;;;;1.73;78.76;98451.39;228781;1193;140161;-69
2021/12/10 11:04:42;;;;;;;47.70;24.50;;;;;;;1.87;78.66;98447.83;229062;1193;141146;-69
2021/12/10 11:09:56;;;;;;;53.00;26.60;;;;;;;1.88;78.13;98452.92;228235;1193;140424;-69
2021/12/10 11:15:06;;;;;;;47.60;25.60;;;;;;;1.87;78.16;98467.92;229320;1193;139431;-68
2021/12/10 11:20:32;;;;;;;50.30;23.60;;;;;;;1.95;78.25;98474.56;228055;1193;140126;-69
2021/12/10 11:25:49;;;;;;;42.10;24.10;;;;;;;1.98;78.29;98477.05;228459;1193;140902;-68
2021/12/10 11:31:02;;;;;;;44.70;23.50;;;;;;;2.05;78.18;98479.70;227740;1193;140435;-68
2021/12/10 11:36:13;;;;;;;31.80;19.80;;;;;;;2.06;78.12;98470.91;228140;1193;140146;-68
2021/12/10 11:41:41;;;;;;;51.40;25.50;;;;;;;1.99;77.97;98462.94;228141;1193;140170;-68
2021/12/10 11:51:58;;;;;;;40.30;22.90;;;;;;;1.94;77.96;98474.73;229008;1193;139240;-70
2021/12/10 11:57:11;;;;;;;48.40;25.60;;;;;;;1.92;78.11;98476.31;229527;1193;140068;-69
2021/12/10 12:02:30;;;;;;;45.90;26.30;;;;;;;1.97;77.75;98474.43;230416;1193;141843;-70
2021/12/10 12:07:40;;;;;;;41.20;25.90;;;;;;;2.01;77.42;98469.48;230193;1195;224612;-72
2021/12/10 12:12:49;;;;;;;43.30;23.40;;;;;;;2.07;77.71;98466.14;230416;1193;139929;-72
2021/12/10 12:18:22;;;;;;;;;;;;;;;2.18;77.79;98467.77;230279;1193;140379;-72
2021/12/10 12:29:03;;;;;;;37.80;20.10;;;;;;;2.43;77.88;98467.44;229527;1193;140514;-69
2021/12/10 12:34:19;;;;;;;37.70;21.10;;;;;;;2.47;77.27;98470.42;229087;1193;139785;-69
2021/12/10 12:39:36;;;;;;;37.30;21.30;;;;;;;2.47;77.29;98477.02;228574;1193;141415;-67
2021/12/10 12:44:44;;;;;;;38.30;22.60;;;;;;;2.47;77.15;98470.27;228859;1193;142142;-69
2021/12/10 12:50:16;;;;;;;37.50;20.80;;;;;;;2.52;77.19;98465.79;228957;1193;140377;-69
2021/12/10 12:55:43;;;;;;;33.60;19.60;;;;;;;2.51;76.99;98463.27;228865;1193;139860;-68
2021/12/10 13:01:17;;;;;;;33.10;17.50;;;;;;;2.52;77.05;98470.39;227917;1193;139840;-69
2021/12/10 13:06:35;;;;;;;30.00;18.30;;;;;;;2.55;76.66;98470.79;228481;1193;141758;-69
2021/12/10 13:12:09;;;;;;;32.60;19.20;;;;;;;2.41;76.48;98475.81;227922;1193;140713;-70
2021/12/10 13:17:14;;;;;;;26.40;16.50;;;;;;;2.27;76.85;98476.16;228474;1193;141146;-69
2021/12/10 13:22:25;;;;;;;29.20;16.90;;;;;;;2.20;76.62;98472.06;229115;1193;139268;-70
2021/12/10 13:27:29;;;;;;;29.30;15.80;;;;;;;2.19;76.67;98473.33;228593;1193;141889;-68
2021/12/10 13:32:50;;;;;;;29.50;16.00;;;;;;;2.08;76.32;98477.21;228208;1193;140565;-70
2021/12/10 13:37:59;;;;;;;22.50;16.30;;;;;;;1.93;76.38;98482.89;228651;1193;139900;-69
2021/12/10 13:43:05;;;;;;;31.70;20.90;;;;;;;1.80;76.73;98484.34;228984;1193;160891;-70
2021/12/10 13:48:14;;;;;;;26.60;16.30;;;;;;;1.77;77.09;98474.41;228449;1193;140614;-70
2021/12/10 13:53:26;;;;;;;36.30;16.90;;;;;;;1.72;76.81;98475.41;228605;1193;139437;-69
2021/12/10 13:58:41;;;;;;;35.00;19.90;;;;;;;1.60;76.43;98470.86;229401;1193;140259;-70
2021/12/10 14:03:53;;;;;;;28.40;19.20;;;;;;;1.45;76.39;98475.50;229927;1193;140103;-70
2021/12/10 14:09:18;;;;;;;26.30;14.20;;;;;;;1.21;76.15;98483.80;230158;1193;140791;-72
2021/12/10 14:14:31;;;;;;;22.00;14.10;;;;;;;0.96;75.84;98486.94;230176;1193;140290;-73
2021/12/10 14:19:47;;;;;;;26.60;15.90;;;;;;;0.83;76.48;98485.52;229706;1193;139650;-70
2021/12/10 14:25:17;;;;;;;27.30;16.20;;;;;;;0.77;76.80;98486.11;230118;1194;140133;-71
2021/12/10 14:30:53;;;;;;;31.50;17.10;;;;;;;0.74;77.37;98489.05;229998;1193;140549;-69
2021/12/10 14:36:04;;;;;;;31.40;17.70;;;;;;;0.69;77.26;98489.33;230438;1193;139705;-69
2021/12/10 14:41:17;;;;;;;33.20;21.60;;;;;;;0.60;77.19;98494.38;228825;1193;140016;-68
2021/12/10 14:46:42;;;;;;;39.90;18.70;;;;;;;0.49;77.35;98507.80;228797;1193;139414;-68
2021/12/10 14:52:34;;;;;;;35.50;19.70;;;;;;;0.44;77.47;98510.17;228874;1193;144282;-68
2021/12/10 14:58:02;;;;;;;37.50;21.90;;;;;;;0.34;77.50;98517.90;228081;1193;221593;-67
2021/12/10 15:03:38;;;;;;;33.60;19.80;;;;;;;0.20;78.16;98520.21;228666;1193;140600;-68
2021/12/10 15:09:07;;;;;;;26.70;16.60;;;;;;;0.11;78.27;98526.95;228336;1193;226333;-67
2021/12/10 15:14:40;;;;;;;37.50;18.70;;;;;;;0.00;78.16;98521.16;229287;1193;141207;-69
2021/12/10 15:19:53;;;;;;;36.00;20.70;;;;;;;-0.01;77.92;98519.95;228950;1193;153502;-66
2021/12/10 15:24:56;;;;;;;;;;;;;;;-0.07;78.32;98518.40;228030;1193;142398;-66
2021/12/10 15:30:07;;;;;;;46.30;24.00;;;;;;;-0.15;78.32;98527.87;229756;1193;125833;-67
2021/12/10 15:35:16;;;;;;;35.80;22.10;;;;;;;-0.24;78.51;98529.19;227679;1193;140843;-68
2021/12/10 15:40:43;;;;;;;39.90;22.40;;;;;;;-0.31;78.43;98530.21;229100;1193;162701;-66
2021/12/10 15:45:49;;;;;;;42.30;22.70;;;;;;;-0.38;78.61;98526.04;229223;1193;140655;-71
2021/12/10 15:50:58;;;;;;;47.70;26.60;;;;;;;-0.35;78.42;98529.40;227913;1193;141897;-68
2021/12/10 15:56:23;;;;;;;50.70;27.10;;;;;;;-0.35;78.94;98522.76;229074;1193;141115;-66
2021/12/10 16:01:34;;;;;;;45.00;26.30;;;;;;;-0.36;79.13;98534.12;228498;1193;140046;-66
2021/12/10 16:06:39;;;;;;;46.50;24.30;;;;;;;-0.38;78.97;98538.48;228337;1193;140404;-66
2021/12/10 16:11:44;;;;;;;41.50;23.40;;;;;;;-0.40;78.86;98533.00;230120;1193;140185;-67
2021/12/10 16:16:51;;;;;;;45.10;25.60;;;;;;;-0.37;79.09;98533.83;229990;1195;141608;-69
2021/12/10 16:22:08;;;;;;;44.60;27.00;;;;;;;-0.35;78.92;98531.98;230383;1193;140602;-72
2021/12/10 16:27:23;;;;;;;47.20;25.30;;;;;;;-0.38;79.16;98528.53;230348;1193;140900;-71
2021/12/10 16:32:32;;;;;;;48.00;27.90;;;;;;;-0.52;78.56;98530.98;228912;1193;141706;-70
2021/12/10 16:37:38;;;;;;;54.40;29.20;;;;;;;-0.58;78.69;98538.60;229726;1193;140846;-69
2021/12/10 16:42:52;;;;;;;56.50;29.00;;;;;;;-0.58;79.18;98545.05;228529;1193;142387;-69
2021/12/10 16:47:56;;;;;;;57.20;33.90;;;;;;;-0.67;78.85;98543.85;228967;1193;141480;-70
2021/12/10 16:53:00;;;;;;;69.30;37.10;;;;;;;-0.77;78.72;98544.73;228337;1193;141560;-70
2021/12/10 16:58:17;;;;;;;69.70;37.20;;;;;;;-0.92;78.66;98547.25;228638;1193;204838;-70
2021/12/10 17:03:37;;;;;;;63.30;33.70;;;;;;;-1.10;78.63;98547.38;228155;1193;139709;-70
2021/12/10 17:09:01;;;;;;;86.80;46.30;;;;;;;-1.31;78.55;98554.70;227511;1193;140365;-69
2021/12/10 17:14:14;;;;;;;84.70;44.70;;;;;;;-1.43;78.77;98550.59;229429;1193;141584;-70
2021/12/10 17:19:22;;;;;;;71.30;40.30;;;;;;;-1.44;79.00;98552.89;227776;1193;141823;-70
2021/12/10 17:24:31;;;;;;;75.30;43.50;;;;;;;-1.50;78.77;98558.52;227672;1193;139622;-69
2021/12/10 17:29:37;;;;;;;84.80;40.70;;;;;;;-1.62;78.37;98565.09;229100;1193;141091;-69
2021/12/10 17:34:45;;;;;;;71.60;39.90;;;;;;;-1.80;78.08;98562.01;228392;1193;139593;-69
2021/12/10 17:40:05;;;;;;;72.20;38.70;;;;;;;-1.98;77.75;98561.47;229429;1193;140297;-70
2021/12/10 17:45:14;;;;;;;82.80;42.60;;;;;;;-2.23;77.57;98569.29;229008;1193;141709;-71
2021/12/10 17:50:37;;;;;;;78.00;40.20;;;;;;;-2.45;77.50;98570.24;227704;1193;139833;-70
2021/12/10 17:55:48;;;;;;;80.80;40.60;;;;;;;-2.61;77.67;98573.39;228411;1193;139588;-70
2021/12/10 18:00:57;;;;;;;79.50;38.00;;;;;;;-2.67;77.58;98575.94;227620;1193;140908;-70
2021/12/10 18:06:04;;;;;;;89.20;47.10;;;;;;;-2.71;77.85;98574.42;229655;1193;141733;-72
2021/12/10 18:11:11;;;;;;;98.00;46.50;;;;;;;-2.74;78.05;98577.52;230223;1193;141313;-73
2021/12/10 18:16:18;;;;;;;87.80;45.70;;;;;;;-2.78;78.01;98577.33;230340;1193;139775;-76
2021/12/10 18:21:42;;;;;;;81.30;43.00;;;;;;;-2.85;77.99;98579.51;230158;1193;140808;-77
2021/12/10 18:26:51;;;;;;;88.40;44.80;;;;;;;-2.94;77.73;98577.66;230166;1193;140285;-77
2021/12/10 18:31:59;;;;;;;93.90;47.80;;;;;;;-3.05;77.28;98582.19;230140;1193;141236;-77
2021/12/10 18:37:08;;;;;;;83.20;40.10;;;;;;;-3.15;77.41;98586.64;229363;1193;141798;-75
2021/12/10 18:42:17;;;;;;;86.70;44.50;;;;;;;-3.18;77.63;98589.63;227874;1193;141342;-70
2021/12/10 18:47:20;;;;;;;89.50;45.30;;;;;;;-3.28;77.64;98595.66;228991;1193;140594;-73
2021/12/10 18:52:27;;;;;;;92.30;46.70;;;;;;;-3.35;77.62;98600.60;229006;1193;140640;-73
2021/12/10 18:57:35;;;;;;;102.80;46.80;;;;;;;-3.51;77.34;98605.73;229063;1193;139981;-71
2021/12/10 19:02:41;;;;;;;76.60;38.30;;;;;;;-3.68;77.29;98613.93;227577;1193;140733;-70
2021/12/10 19:07:52;;;;;;;104.40;50.20;;;;;;;-3.75;78.39;98617.91;229395;1193;142654;-69
2021/12/10 19:13:03;;;;;;;111.40;51.20;;;;;;;-3.67;78.91;98623.02;228575;1193;140642;-68
2021/12/10 19:18:20;;;;;;;107.30;50.80;;;;;;;-3.61;79.04;98630.06;228366;1193;141817;-72
2021/12/10 19:23:33;;;;;;;89.50;44.10;;;;;;;-3.54;79.30;98633.61;228375;1193;139961;-69
2021/12/10 19:28:48;;;;;;;73.90;37.40;;;;;;;-3.47;79.53;98641.52;228625;1193;140281;-66
2021/12/10 19:33:58;;;;;;;78.20;40.20;;;;;;;-3.44;79.89;98649.48;228960;1193;140225;-67
2021/12/10 19:39:26;;;;;;;77.70;34.60;;;;;;;-3.42;80.05;98654.39;228481;1193;139725;-66
2021/12/10 19:44:36;;;;;;;97.70;46.20;;;;;;;-3.41;80.39;98661.88;228066;1193;141080;-65
2021/12/10 19:49:53;;;;;;;99.20;48.60;;;;;;;-3.29;80.33;98661.76;228652;1193;142249;-67
2021/12/10 19:55:28;;;;;;;113.20;47.20;;;;;;;-3.20;80.68;98670.08;230041;1193;141330;-68
2021/12/10 20:00:39;;;;;;;98.40;46.80;;;;;;;-3.14;80.85;98679.50;229035;1193;140923;-73
2021/12/10 20:05:52;;;;;;;96.20;47.90;;;;;;;-3.08;80.71;98686.50;229348;1193;139883;-70
2021/12/10 20:11:05;;;;;;;103.20;42.00;;;;;;;-3.06;80.59;98691.59;228241;1193;142060;-66
2021/12/10 20:16:22;;;;;;;90.30;39.20;;;;;;;-3.01;80.83;98696.27;230330;1193;141649;-66
2021/12/10 20:21:48;;;;;;;85.90;40.10;;;;;;;-3.00;80.85;98697.23;230236;1193;140228;-68
2021/12/10 20:27:27;;;;;;;71.80;34.10;;;;;;;-3.00;80.93;98692.16;229402;1193;139329;-71
2021/12/10 20:32:34;;;;;;;80.80;38.40;;;;;;;-3.03;80.64;98694.42;229796;1193;140001;-70
2021/12/10 20:37:54;;;;;;;80.80;35.50;;;;;;;-3.08;80.63;98700.38;229655;1193;139772;-73
2021/12/10 20:43:07;;;;;;;63.30;33.00;;;;;;;-3.10;80.64;98705.84;229610;1193;141790;-70
2021/12/10 20:48:16;;;;;;;78.20;37.90;;;;;;;-3.10;80.81;98705.45;229776;1193;140945;-73
2021/12/10 20:53:40;;;;;;;64.40;26.00;;;;;;;-3.10;80.98;98715.48;229000;1193;140500;-72
2021/12/10 20:59:06;;;;;;;84.90;42.70;;;;;;;-3.08;81.14;98717.39;228631;1193;140345;-69
2021/12/10 21:04:17;;;;;;;85.10;42.80;;;;;;;-3.02;81.15;98723.13;229027;1193;140595;-67
2021/12/10 21:09:28;;;;;;;90.20;40.20;;;;;;;-2.97;81.29;98725.19;228504;1186;140588;-67
2021/12/10 21:14:35;;;;;;;72.40;35.30;;;;;;;-2.95;81.28;98725.86;228187;1193;150572;-67
2021/12/10 21:19:46;;;;;;;70.10;32.80;;;;;;;-2.97;81.41;98722.09;227732;1193;140755;-66
2021/12/10 21:25:06;;;;;;;89.40;38.40;;;;;;;-3.02;81.40;98727.37;229010;1193;140354;-67
2021/12/10 21:30:23;;;;;;;81.80;37.80;;;;;;;-3.02;81.45;98724.88;228901;1193;139935;-69
2021/12/10 21:35:45;;;;;;;65.40;30.60;;;;;;;-3.00;81.27;98732.14;228987;1193;139592;-67
2021/12/10 21:41:00;;;;;;;89.90;37.50;;;;;;;-3.06;81.33;98740.63;227688;1193;139848;-67
2021/12/10 21:46:10;;;;;;;76.90;35.20;;;;;;;-3.11;81.58;98749.50;229301;1193;141170;-66
2021/12/10 21:51:23;;;;;;;85.30;40.90;;;;;;;-3.15;81.52;98756.03;227986;1193;142516;-70
2021/12/10 21:56:27;;;;;;;79.50;37.20;;;;;;;-3.15;81.46;98759.36;228721;1193;142418;-67
2021/12/10 22:01:37;;;;;;;91.70;37.80;;;;;;;-3.13;81.47;98763.66;229866;1193;140720;-68
2021/12/10 22:06:54;;;;;;;78.00;34.50;;;;;;;-3.15;81.35;98772.23;229357;1193;140461;-67
2021/12/10 22:12:09;;;;;;;61.40;31.00;;;;;;;-3.20;81.32;98773.20;229381;1193;139842;-67
2021/12/10 22:17:16;;;;;;;79.90;38.90;;;;;;;-3.26;81.38;98773.52;228784;1193;140539;-68
2021/12/10 22:22:41;;;;;;;81.40;34.70;;;;;;;-3.30;81.10;98781.38;228788;1193;140926;-68
2021/12/10 22:27:44;;;;;;;85.90;37.70;;;;;;;-3.33;81.21;98781.71;229685;1193;140400;-68
2021/12/10 22:32:48;;;;;;;90.20;43.10;;;;;;;-3.36;81.54;98781.94;230115;1193;139297;-67
2021/12/10 22:37:56;;;;;;;87.80;40.10;;;;;;;-3.37;81.66;98784.80;228648;1193;143509;-71
2021/12/10 22:43:12;;;;;;;83.50;39.30;;;;;;;-3.35;81.61;98782.87;230328;1193;140821;-72
2021/12/10 22:48:22;;;;;;;107.80;47.10;;;;;;;-3.38;81.28;98786.63;228119;1193;140237;-66
2021/12/10 22:53:36;;;;;;;96.20;38.40;;;;;;;-3.43;81.25;98790.08;229408;1193;141002;-68
2021/12/10 22:58:44;;;;;;;99.60;43.70;;;;;;;-3.41;81.00;98794.92;228787;1195;143034;-70
2021/12/10 23:03:56;;;;;;;93.10;43.00;;;;;;;-3.48;80.69;98802.89;229308;1193;141037;-69
2021/12/10 23:14:39;;;;;;;97.30;42.50;;;;;;;-3.57;81.26;98804.50;228487;1193;139917;-67
2021/12/10 23:19:52;;;;;;;102.90;48.80;;;;;;;-3.61;80.83;98806.20;228789;1190;140284;-67
2021/12/10 23:25:10;;;;;;;99.90;42.00;;;;;;;-3.68;80.84;98811.29;228229;1193;139693;-68
2021/12/10 23:30:25;;;;;;;83.80;40.50;;;;;;;-3.69;80.48;98821.84;228877;1194;140523;-67
2021/12/10 23:35:40;;;;;;;104.30;44.80;;;;;;;-3.78;80.35;98823.77;228597;1193;140727;-68
2021/12/10 23:41:07;;;;;;;93.40;44.10;;;;;;;-3.80;80.78;98828.59;229290;1193;139967;-69
2021/12/10 23:46:38;;;;;;;83.30;39.10;;;;;;;-3.83;80.79;98831.68;228720;1193;139437;-69
2021/12/10 23:51:45;;;;;;;81.80;41.90;;;;;;;-3.92;80.81;98832.85;228722;1193;139255;-69
2021/12/10 23:56:48;;;;;;;80.30;38.80;;;;;;;-3.98;80.59;98844.77;229237;1186;140380;-70
